KCRW

Yeager Airport

Charleston, West Virginia, USA
METAR KCRW 180254Z 18004KT 10SM SCT017 BKN029 OVC042 04/03 A3015 RMK AO2 SLP216 60000 T00440028 53001
Observed Flight Rules
Dec-18 @ 02:54 UTC (13 minutes ago) Marginal Visual Flight Rules
Wind Visibility Clouds
180° at 4 knots 10 miles
  • Scattered at 1,700' AGL
  • Broken at 2,900' AGL
  • Overcast at 4,200' AGL
Temperatures Readings
Current 4°C / 39°F
Dewpoint 3°C / 37°F
Humidity 93%
Altimeter 30.15" Hg
Pressure 1021.6 hPa
Elevation 309
METAR KCRW 180254Z 18004KT 10SM SCT017 BKN029 OVC042 04/03 A3015 RMK AO2 SLP216 60000 T00440028 53001
Observed Flight Rules
Dec-18 @ 02:54 UTC
(13 minutes ago)
MVFR
Wind Visibility
180° at 4 knots 10 miles
Clouds
  • Scattered at 1,700' AGL
  • Broken at 2,900' AGL
  • Overcast at 4,200' AGL
Temperature Dewpoint
4°C / 39°F 3°C / 37°F
Humidity Altimeter Pressure
93% 30.15" Hg 1021.6 hPa